Flag for Italy

Past Weather in 40°49'59.9"N, 14°15'00.0"E, Italy — Yesterday and Last 2 Weeks

Currently: 90 °F. Passing clouds. (Weather station: Naples / Capodichino, Italy). See more current weather

Past Weather in 40°49'59.9"N, 14°15'00.0"E — Graph

°F

40°49'59.9"N, 14°15'00.0"E Temperature Yesterday

Maximum temperature yesterday: 90 °F (at 12:50 pm)
Minimum temperature yesterday: 75 °F (at 4:50 am)
Average temperature yesterday: 83 °F

High & Low Weather Summary for the Past Weeks

 TemperatureHumidityPressure
High95 °F (Jul 9, 4:20 pm)94% (Jul 12, 2:20 am)30.04 "Hg (Jul 12, 2:20 am)
Low68 °F (Jul 4, 4:20 am)30% (Jul 13, 4:20 pm)29.71 "Hg (Jul 3, 2:20 pm)
Average82 °F63%29.92 "Hg
* Reported Jul 3 2:20 pm — Jul 18 2:20 pm, 40°49'59.9"N, 14°15'00.0"E. Weather by CustomWeather, © 2024

Note: Actual official high and low records may vary slightly from our data, if they occured in-between our weather recording intervals... More about our weather records

40°49'59.9"N, 14°15'00.0"E Weather History for the Previous 24 Hours

Scroll right to see more
 ConditionsComfort  
Time TempWeatherWind HumidityBarometerVisibility
2:20 pm
Thu, Jul 18
90 °FPassing clouds.9 mph63%30.01 "HgN/A
1:50 pm90 °FPassing clouds.9 mph63%30.01 "HgN/A
12:50 pm90 °FPassing clouds.8 mph63%30.01 "HgN/A
12:20 pm88 °FPassing clouds.7 mph66%30.01 "HgN/A
11:50 am88 °FPassing clouds.7 mph66%30.01 "HgN/A
11:20 am88 °FPassing clouds.6 mph66%30.01 "HgN/A
10:50 am88 °FPassing clouds.5 mph66%30.04 "HgN/A
10:20 am86 °FPassing clouds.5 mph66%30.04 "HgN/A
9:50 am88 °FSunny.5 mph59%30.04 "Hg10 mi
9:20 am86 °FPassing clouds.3 mph62%30.01 "HgN/A
8:50 am84 °FSunny.3 mph70%30.04 "Hg10 mi
8:20 am82 °FSunny.2 mph74%30.01 "Hg10 mi
7:50 am82 °FSunny.1 mph74%30.01 "Hg10 mi
7:20 am79 °FSunny.2 mph84%30.01 "Hg10 mi
6:50 am79 °FSunny.2 mph79%30.01 "HgN/A
6:20 am79 °FSunny.3 mph79%30.01 "HgN/A
5:50 am77 °FSunny.2 mph83%30.01 "HgN/A
5:20 am77 °FClear.3 mph83%30.01 "HgN/A
4:50 am77 °FClear.3 mph79%30.01 "HgN/A
4:20 am77 °FClear.3 mph83%30.01 "HgN/A
3:20 am79 °FClear.3 mph79%29.98 "HgN/A
2:50 am79 °FClear.3 mph79%29.98 "HgN/A
2:20 am79 °FClear.2 mph79%30.01 "HgN/A
1:50 am79 °FClear.1 mph84%30.01 "HgN/A
1:20 am79 °FClear.1 mph84%30.01 "HgN/A
12:50 am81 °FClear.1 mph74%30.01 "HgN/A
12:20 am81 °FClear.2 mph79%30.01 "HgN/A
11:50 pm
Wed, Jul 17
81 °FClear.3 mph79%29.98 "HgN/A
11:20 pm81 °FClear.2 mph79%29.98 "HgN/A
10:50 pm82 °FPassing clouds.3 mph70%29.98 "HgN/A
10:20 pm81 °FClear.5 mph79%29.98 "Hg10 mi
9:50 pm82 °FPassing clouds.3 mph70%29.98 "HgN/A
9:20 pm82 °FPassing clouds.3 mph70%29.98 "HgN/A
8:50 pm82 °FClear.3 mph70%29.98 "Hg10 mi
8:20 pm82 °FPassing clouds.8 mph74%29.98 "HgN/A
7:50 pm86 °FPassing clouds.7 mph62%29.95 "HgN/A
7:20 pm88 °FPassing clouds.6 mph66%29.95 "HgN/A
6:50 pm90 °FSunny.6 mph63%29.95 "Hg10 mi
6:20 pm90 °FPassing clouds.6 mph63%29.95 "HgN/A
5:50 pm90 °FPassing clouds.7 mph63%29.95 "HgN/A
5:20 pm90 °FPassing clouds.7 mph63%29.95 "HgN/A
4:50 pm90 °FPassing clouds.9 mph63%29.95 "HgN/A
4:20 pm88 °FSunny.9 mph66%29.98 "Hg10 mi
3:50 pm90 °FPassing clouds.9 mph59%29.95 "HgN/A
3:20 pm90 °FPassing clouds.8 mph55%29.95 "HgN/A
Weather by CustomWeather, © 2024

See weather overview